sensor_id;sensor_type;location;lat;lon;timestamp;pressure;altitude;pressure_sealevel;temperature;humidity
48846;BME280;34665;51.886;5.436;2023-04-24T00:00:12;99719.13;;;16.79;100.00
48846;BME280;34665;51.886;5.436;2023-04-24T00:02:41;99733.13;;;16.17;100.00
48846;BME280;34665;51.886;5.436;2023-04-24T00:05:10;99739.94;;;16.30;100.00
48846;BME280;34665;51.886;5.436;2023-04-24T00:07:35;99731.47;;;16.65;100.00
48846;BME280;34665;51.886;5.436;2023-04-24T00:10:01;99742.59;;;16.73;100.00
48846;BME280;34665;51.886;5.436;2023-04-24T00:12:26;99736.34;;;16.68;100.00
48846;BME280;34665;51.886;5.436;2023-04-24T00:14:52;99750.00;;;16.40;100.00
48846;BME280;34665;51.886;5.436;2023-04-24T00:17:18;99742.53;;;16.63;100.00
48846;BME280;34665;51.886;5.436;2023-04-24T00:19:46;99744.63;;;16.51;100.00
48846;BME280;34665;51.886;5.436;2023-04-24T00:22:12;99741.56;;;16.85;100.00
48846;BME280;34665;51.886;5.436;2023-04-24T00:24:38;99751.41;;;17.17;100.00
48846;BME280;34665;51.886;5.436;2023-04-24T00:27:04;99741.66;;;17.11;100.00
48846;BME280;34665;51.886;5.436;2023-04-24T00:29:29;99755.00;;;16.74;100.00
48846;BME280;34665;51.886;5.436;2023-04-24T00:31:55;99754.78;;;16.86;100.00
48846;BME280;34665;51.886;5.436;2023-04-24T00:34:20;99750.03;;;16.51;100.00
48846;BME280;34665;51.886;5.436;2023-04-24T00:36:46;99749.78;;;17.26;100.00
48846;BME280;34665;51.886;5.436;2023-04-24T00:39:11;99750.31;;;17.18;100.00
48846;BME280;34665;51.886;5.436;2023-04-24T00:41:37;99746.69;;;16.86;100.00
48846;BME280;34665;51.886;5.436;2023-04-24T00:44:02;99744.72;;;16.71;100.00
48846;BME280;34665;51.886;5.436;2023-04-24T00:46:28;99753.22;;;16.42;100.00
48846;BME280;34665;51.886;5.436;2023-04-24T00:48:53;99758.03;;;16.94;100.00
48846;BME280;34665;51.886;5.436;2023-04-24T00:51:20;99755.72;;;16.54;100.00
48846;BME280;34665;51.886;5.436;2023-04-24T00:53:46;99750.31;;;17.13;100.00
48846;BME280;34665;51.886;5.436;2023-04-24T00:56:11;99764.75;;;16.81;100.00
48846;BME280;34665;51.886;5.436;2023-04-24T00:58:37;99757.13;;;16.67;100.00
48846;BME280;34665;51.886;5.436;2023-04-24T01:01:03;99765.34;;;16.93;100.00
48846;BME280;34665;51.886;5.436;2023-04-24T01:03:33;99761.03;;;16.92;100.00
48846;BME280;34665;51.886;5.436;2023-04-24T01:05:58;99764.91;;;17.17;100.00
48846;BME280;34665;51.886;5.436;2023-04-24T01:08:24;99766.53;;;17.08;100.00
48846;BME280;34665;51.886;5.436;2023-04-24T01:10:53;99768.91;;;16.45;100.00
48846;BME280;34665;51.886;5.436;2023-04-24T01:13:19;99763.44;;;16.88;100.00
48846;BME280;34665;51.886;5.436;2023-04-24T01:15:46;99760.53;;;17.00;100.00
48846;BME280;34665;51.886;5.436;2023-04-24T01:18:12;99758.88;;;16.94;100.00
48846;BME280;34665;51.886;5.436;2023-04-24T01:20:41;99754.88;;;17.02;100.00
48846;BME280;34665;51.886;5.436;2023-04-24T01:23:09;99757.59;;;17.07;100.00
48846;BME280;34665;51.886;5.436;2023-04-24T01:25:34;99759.88;;;16.77;100.00
48846;BME280;34665;51.886;5.436;2023-04-24T01:28:00;99764.06;;;17.11;100.00
48846;BME280;34665;51.886;5.436;2023-04-24T01:30:26;99754.00;;;16.96;100.00
48846;BME280;34665;51.886;5.436;2023-04-24T01:32:52;99755.53;;;17.51;100.00
48846;BME280;34665;51.886;5.436;2023-04-24T01:35:17;99763.59;;;17.35;100.00
48846;BME280;34665;51.886;5.436;2023-04-24T01:37:43;99750.91;;;17.51;100.00
48846;BME280;34665;51.886;5.436;2023-04-24T01:40:09;99755.00;;;17.69;100.00
48846;BME280;34665;51.886;5.436;2023-04-24T01:42:35;99762.03;;;18.38;100.00
48846;BME280;34665;51.886;5.436;2023-04-24T01:45:01;99764.75;;;18.17;100.00
48846;BME280;34665;51.886;5.436;2023-04-24T01:47:29;99753.91;;;17.60;100.00
48846;BME280;34665;51.886;5.436;2023-04-24T01:49:56;99758.00;;;18.09;100.00
48846;BME280;34665;51.886;5.436;2023-04-24T01:52:21;99750.56;;;17.16;100.00
48846;BME280;34665;51.886;5.436;2023-04-24T01:54:47;99758.75;;;16.63;100.00
48846;BME280;34665;51.886;5.436;2023-04-24T01:57:13;99744.72;;;16.71;100.00
48846;BME280;34665;51.886;5.436;2023-04-24T01:59:40;99757.38;;;16.66;100.00
48846;BME280;34665;51.886;5.436;2023-04-24T02:02:05;99750.13;;;16.71;100.00
48846;BME280;34665;51.886;5.436;2023-04-24T02:04:31;99752.91;;;16.92;100.00
48846;BME280;34665;51.886;5.436;2023-04-24T02:06:56;99756.41;;;16.87;100.00
48846;BME280;34665;51.886;5.436;2023-04-24T02:09:23;99754.44;;;16.67;100.00
48846;BME280;34665;51.886;5.436;2023-04-24T02:11:49;99742.88;;;16.29;100.00
48846;BME280;34665;51.886;5.436;2023-04-24T02:14:16;99752.09;;;16.91;100.00
48846;BME280;34665;51.886;5.436;2023-04-24T02:16:42;99751.28;;;16.86;100.00
48846;BME280;34665;51.886;5.436;2023-04-24T02:19:09;99752.22;;;16.59;100.00
48846;BME280;34665;51.886;5.436;2023-04-24T02:21:34;99766.09;;;17.88;100.00
48846;BME280;34665;51.886;5.436;2023-04-24T02:24:00;99768.78;;;17.88;100.00
48846;BME280;34665;51.886;5.436;2023-04-24T02:26:25;99772.63;;;18.03;100.00
48846;BME280;34665;51.886;5.436;2023-04-24T02:28:51;99759.94;;;16.93;100.00
48846;BME280;34665;51.886;5.436;2023-04-24T02:31:19;99752.00;;;17.45;100.00
48846;BME280;34665;51.886;5.436;2023-04-24T02:33:46;99761.50;;;17.89;100.00
48846;BME280;34665;51.886;5.436;2023-04-24T02:36:12;99761.50;;;17.68;100.00
48846;BME280;34665;51.886;5.436;2023-04-24T02:38:38;99754.47;;;17.77;100.00
48846;BME280;34665;51.886;5.436;2023-04-24T02:41:04;99750.91;;;17.46;100.00
48846;BME280;34665;51.886;5.436;2023-04-24T02:43:32;99751.00;;;16.87;100.00
48846;BME280;34665;51.886;5.436;2023-04-24T02:45:57;99752.97;;;17.02;100.00
48846;BME280;34665;51.886;5.436;2023-04-24T02:48:23;99757.28;;;17.03;100.00
48846;BME280;34665;51.886;5.436;2023-04-24T02:50:49;99753.97;;;16.86;100.00
48846;BME280;34665;51.886;5.436;2023-04-24T02:53:16;99751.59;;;16.41;100.00
48846;BME280;34665;51.886;5.436;2023-04-24T02:55:41;99755.09;;;16.42;100.00
48846;BME280;34665;51.886;5.436;2023-04-24T02:58:08;99748.38;;;16.44;100.00
48846;BME280;34665;51.886;5.436;2023-04-24T03:00:34;99758.56;;;16.32;100.00
48846;BME280;34665;51.886;5.436;2023-04-24T03:02:59;99750.00;;;16.45;100.00
48846;BME280;34665;51.886;5.436;2023-04-24T03:05:25;99761.91;;;16.55;100.00
48846;BME280;34665;51.886;5.436;2023-04-24T03:07:51;99749.28;;;16.60;100.00
48846;BME280;34665;51.886;5.436;2023-04-24T03:10:20;99746.16;;;16.36;100.00
48846;BME280;34665;51.886;5.436;2023-04-24T03:12:47;99753.25;;;16.47;100.00
48846;BME280;34665;51.886;5.436;2023-04-24T03:15:13;99741.69;;;16.52;100.00
48846;BME280;34665;51.886;5.436;2023-04-24T03:17:38;99739.25;;;16.56;100.00
48846;BME280;34665;51.886;5.436;2023-04-24T03:20:04;99754.09;;;16.10;100.00
48846;BME280;34665;51.886;5.436;2023-04-24T03:22:31;99741.25;;;16.23;100.00
48846;BME280;34665;51.886;5.436;2023-04-24T03:24:59;99746.88;;;16.64;100.00
48846;BME280;34665;51.886;5.436;2023-04-24T03:27:24;99738.47;;;16.55;100.00
48846;BME280;34665;51.886;5.436;2023-04-24T03:29:54;99746.44;;;16.34;100.00
48846;BME280;34665;51.886;5.436;2023-04-24T03:32:23;99741.78;;;16.73;100.00
48846;BME280;34665;51.886;5.436;2023-04-24T03:34:49;99744.72;;;16.23;100.00
48846;BME280;34665;51.886;5.436;2023-04-24T03:37:15;99737.09;;;16.10;100.00
48846;BME280;34665;51.886;5.436;2023-04-24T03:39:47;99743.38;;;15.88;100.00
48846;BME280;34665;51.886;5.436;2023-04-24T03:42:14;99735.22;;;15.77;100.00
48846;BME280;34665;51.886;5.436;2023-04-24T03:44:49;99735.22;;;16.10;100.00
48846;BME280;34665;51.886;5.436;2023-04-24T03:47:16;99733.63;;;16.14;100.00
48846;BME280;34665;51.886;5.436;2023-04-24T03:49:41;99747.19;;;15.59;100.00
48846;BME280;34665;51.886;5.436;2023-04-24T03:52:08;99731.50;;;15.51;100.00
48846;BME280;34665;51.886;5.436;2023-04-24T03:54:34;99729.25;;;15.43;100.00
48846;BME280;34665;51.886;5.436;2023-04-24T03:57:00;99734.66;;;15.75;100.00
48846;BME280;34665;51.886;5.436;2023-04-24T03:59:29;99733.88;;;15.47;100.00
48846;BME280;34665;51.886;5.436;2023-04-24T04:02:16;99736.06;;;15.51;100.00
48846;BME280;34665;51.886;5.436;2023-04-24T04:04:42;99737.25;;;15.32;100.00
48846;BME280;34665;51.886;5.436;2023-04-24T04:07:07;99725.34;;;15.88;100.00
48846;BME280;34665;51.886;5.436;2023-04-24T04:09:34;99745.84;;;15.89;100.00
48846;BME280;34665;51.886;5.436;2023-04-24T04:12:00;99745.94;;;16.00;100.00
48846;BME280;34665;51.886;5.436;2023-04-24T04:14:26;99748.66;;;16.05;100.00
48846;BME280;34665;51.886;5.436;2023-04-24T04:16:52;99745.16;;;16.04;100.00
48846;BME280;34665;51.886;5.436;2023-04-24T04:19:17;99746.34;;;15.86;100.00
48846;BME280;34665;51.886;5.436;2023-04-24T04:21:43;99749.38;;;15.62;100.00
48846;BME280;34665;51.886;5.436;2023-04-24T04:24:30;99754.25;;;15.93;100.00
48846;BME280;34665;51.886;5.436;2023-04-24T04:26:57;99760.97;;;15.63;100.00
48846;BME280;34665;51.886;5.436;2023-04-24T04:29:34;99766.47;;;15.78;100.00
48846;BME280;34665;51.886;5.436;2023-04-24T04:32:03;99772.06;;;15.99;100.00
48846;BME280;34665;51.886;5.436;2023-04-24T04:34:29;99772.25;;;16.63;100.00
48846;BME280;34665;51.886;5.436;2023-04-24T04:36:57;99764.38;;;16.56;100.00
48846;BME280;34665;51.886;5.436;2023-04-24T04:39:40;99776.19;;;16.98;100.00
48846;BME280;34665;51.886;5.436;2023-04-24T04:42:10;99775.41;;;17.08;100.00
48846;BME280;34665;51.886;5.436;2023-04-24T04:44:39;99786.69;;;16.41;100.00
48846;BME280;34665;51.886;5.436;2023-04-24T04:47:07;99780.03;;;16.59;100.00
48846;BME280;34665;51.886;5.436;2023-04-24T04:49:35;99782.06;;;16.85;100.00
48846;BME280;34665;51.886;5.436;2023-04-24T04:52:03;99786.41;;;16.91;100.00
48846;BME280;34665;51.886;5.436;2023-04-24T04:54:30;99788.72;;;16.72;100.00
48846;BME280;34665;51.886;5.436;2023-04-24T04:56:56;99791.13;;;16.63;100.00
48846;BME280;34665;51.886;5.436;2023-04-24T04:59:23;99779.13;;;16.38;100.00
48846;BME280;34665;51.886;5.436;2023-04-24T05:01:54;99780.00;;;16.54;100.00
48846;BME280;34665;51.886;5.436;2023-04-24T05:04:24;99781.72;;;16.28;100.00
48846;BME280;34665;51.886;5.436;2023-04-24T05:06:49;99775.38;;;16.44;100.00
48846;BME280;34665;51.886;5.436;2023-04-24T05:09:17;99764.38;;;17.15;100.00
48846;BME280;34665;51.886;5.436;2023-04-24T05:11:50;99773.78;;;17.07;100.00
48846;BME280;34665;51.886;5.436;2023-04-24T05:14:16;99775.97;;;16.57;100.00
48846;BME280;34665;51.886;5.436;2023-04-24T05:16:43;99779.50;;;17.11;100.00
48846;BME280;34665;51.886;5.436;2023-04-24T05:19:10;99789.13;;;16.96;100.00
48846;BME280;34665;51.886;5.436;2023-04-24T05:21:39;99784.00;;;16.46;100.00
48846;BME280;34665;51.886;5.436;2023-04-24T05:24:06;99784.47;;;16.00;100.00
48846;BME280;34665;51.886;5.436;2023-04-24T05:26:51;99799.38;;;16.08;100.00
48846;BME280;34665;51.886;5.436;2023-04-24T05:29:22;99801.63;;;16.16;100.00
48846;BME280;34665;51.886;5.436;2023-04-24T05:31:48;99816.00;;;16.70;100.00
48846;BME280;34665;51.886;5.436;2023-04-24T05:34:14;99820.53;;;20.94;100.00
48846;BME280;34665;51.886;5.436;2023-04-24T05:36:42;99826.88;;;21.08;100.00
48846;BME280;34665;51.886;5.436;2023-04-24T05:39:08;99840.53;;;21.03;100.00
48846;BME280;34665;51.886;5.436;2023-04-24T05:41:34;99842.75;;;19.72;100.00
48846;BME280;34665;51.886;5.436;2023-04-24T05:44:00;99844.50;;;19.98;100.00
48846;BME280;34665;51.886;5.436;2023-04-24T05:46:25;99858.72;;;20.48;100.00
48846;BME280;34665;51.886;5.436;2023-04-24T05:48:51;99857.75;;;20.04;100.00
48846;BME280;34665;51.886;5.436;2023-04-24T05:51:17;99875.50;;;19.86;100.00
48846;BME280;34665;51.886;5.436;2023-04-24T05:53:43;99873.13;;;19.69;100.00
48846;BME280;34665;51.886;5.436;2023-04-24T05:56:09;99880.09;;;19.41;100.00
48846;BME280;34665;51.886;5.436;2023-04-24T05:58:35;99893.50;;;19.67;100.00
48846;BME280;34665;51.886;5.436;2023-04-24T06:01:01;99900.00;;;18.84;100.00
48846;BME280;34665;51.886;5.436;2023-04-24T06:03:27;99911.13;;;23.28;98.85
48846;BME280;34665;51.886;5.436;2023-04-24T06:05:53;99914.34;;;19.16;100.00
48846;BME280;34665;51.886;5.436;2023-04-24T06:08:20;99907.06;;;18.28;100.00
48846;BME280;34665;51.886;5.436;2023-04-24T06:10:47;99916.75;;;17.98;100.00
48846;BME280;34665;51.886;5.436;2023-04-24T06:13:12;99924.94;;;18.29;100.00
48846;BME280;34665;51.886;5.436;2023-04-24T06:15:45;99920.06;;;18.21;100.00
48846;BME280;34665;51.886;5.436;2023-04-24T06:18:24;99936.00;;;18.12;100.00
48846;BME280;34665;51.886;5.436;2023-04-24T06:20:50;99936.69;;;17.71;100.00
48846;BME280;34665;51.886;5.436;2023-04-24T06:23:17;99944.69;;;18.14;100.00
48846;BME280;34665;51.886;5.436;2023-04-24T06:25:42;99947.91;;;18.16;100.00
48846;BME280;34665;51.886;5.436;2023-04-24T06:28:10;99960.66;;;20.70;100.00
48846;BME280;34665;51.886;5.436;2023-04-24T06:30:35;99968.78;;;19.19;100.00
48846;BME280;34665;51.886;5.436;2023-04-24T06:33:01;99971.78;;;18.87;100.00
48846;BME280;34665;51.886;5.436;2023-04-24T06:35:26;99975.84;;;19.10;100.00
48846;BME280;34665;51.886;5.436;2023-04-24T06:37:51;99974.72;;;19.22;100.00
48846;BME280;34665;51.886;5.436;2023-04-24T06:40:17;99977.13;;;19.44;100.00
48846;BME280;34665;51.886;5.436;2023-04-24T06:42:44;99978.56;;;18.69;100.00
48846;BME280;34665;51.886;5.436;2023-04-24T06:45:09;99982.59;;;18.35;100.00
48846;BME280;34665;51.886;5.436;2023-04-24T06:47:36;99987.50;;;18.74;100.00
48846;BME280;34665;51.886;5.436;2023-04-24T06:50:01;99988.03;;;18.92;100.00
48846;BME280;34665;51.886;5.436;2023-04-24T06:52:26;99995.63;;;18.48;100.00
48846;BME280;34665;51.886;5.436;2023-04-24T06:54:51;99994.75;;;18.12;100.00
48846;BME280;34665;51.886;5.436;2023-04-24T06:57:17;100012.16;;;18.57;100.00
48846;BME280;34665;51.886;5.436;2023-04-24T06:59:42;100011.09;;;17.79;100.00
48846;BME280;34665;51.886;5.436;2023-04-24T07:02:08;100019.94;;;18.33;100.00
48846;BME280;34665;51.886;5.436;2023-04-24T07:04:33;100018.56;;;17.56;100.00
48846;BME280;34665;51.886;5.436;2023-04-24T07:06:58;100027.00;;;17.65;100.00
48846;BME280;34665;51.886;5.436;2023-04-24T07:09:24;100049.06;;;18.00;100.00
48846;BME280;34665;51.886;5.436;2023-04-24T07:11:53;100044.75;;;20.01;100.00
48846;BME280;34665;51.886;5.436;2023-04-24T07:14:18;100061.72;;;19.35;100.00
48846;BME280;34665;51.886;5.436;2023-04-24T07:16:45;100067.66;;;18.75;100.00
48846;BME280;34665;51.886;5.436;2023-04-24T07:19:10;100068.72;;;18.48;100.00
48846;BME280;34665;51.886;5.436;2023-04-24T07:21:36;100076.78;;;18.28;100.00
48846;BME280;34665;51.886;5.436;2023-04-24T07:24:01;100092.59;;;18.77;100.00
48846;BME280;34665;51.886;5.436;2023-04-24T07:26:27;100108.41;;;18.27;100.00
48846;BME280;34665;51.886;5.436;2023-04-24T07:28:53;100098.72;;;17.78;100.00
48846;BME280;34665;51.886;5.436;2023-04-24T07:31:18;100107.72;;;18.58;100.00
48846;BME280;34665;51.886;5.436;2023-04-24T07:33:43;100128.13;;;19.23;100.00
48846;BME280;34665;51.886;5.436;2023-04-24T07:36:09;100131.38;;;19.25;100.00
48846;BME280;34665;51.886;5.436;2023-04-24T07:38:40;100137.63;;;19.30;100.00
48846;BME280;34665;51.886;5.436;2023-04-24T07:41:05;100150.66;;;19.44;100.00
48846;BME280;34665;51.886;5.436;2023-04-24T07:43:30;100152.72;;;18.85;100.00
48846;BME280;34665;51.886;5.436;2023-04-24T07:45:56;100150.59;;;19.85;100.00
48846;BME280;34665;51.886;5.436;2023-04-24T07:48:21;100163.38;;;19.07;100.00
48846;BME280;34665;51.886;5.436;2023-04-24T07:50:47;100159.03;;;19.22;100.00
48846;BME280;34665;51.886;5.436;2023-04-24T07:53:13;100178.00;;;19.16;100.00
48846;BME280;34665;51.886;5.436;2023-04-24T07:55:38;100181.47;;;18.96;100.00
48846;BME280;34665;51.886;5.436;2023-04-24T07:58:04;100183.03;;;18.76;100.00
48846;BME280;34665;51.886;5.436;2023-04-24T08:00:29;100186.22;;;18.53;100.00
48846;BME280;34665;51.886;5.436;2023-04-24T08:02:55;100187.47;;;18.98;100.00
48846;BME280;34665;51.886;5.436;2023-04-24T08:05:20;100208.34;;;20.12;100.00
48846;BME280;34665;51.886;5.436;2023-04-24T08:07:45;100202.09;;;19.02;100.00
48846;BME280;34665;51.886;5.436;2023-04-24T08:10:14;100211.72;;;18.67;100.00
48846;BME280;34665;51.886;5.436;2023-04-24T08:12:41;100213.00;;;19.75;100.00
48846;BME280;34665;51.886;5.436;2023-04-24T08:15:06;100216.53;;;19.75;100.00
48846;BME280;34665;51.886;5.436;2023-04-24T08:17:32;100222.94;;;19.02;100.00
48846;BME280;34665;51.886;5.436;2023-04-24T08:19:57;100226.94;;;18.84;100.00
48846;BME280;34665;51.886;5.436;2023-04-24T08:22:29;100225.84;;;18.80;100.00
48846;BME280;34665;51.886;5.436;2023-04-24T08:24:55;100234.56;;;18.92;100.00
48846;BME280;34665;51.886;5.436;2023-04-24T08:27:22;100245.41;;;18.97;100.00
48846;BME280;34665;51.886;5.436;2023-04-24T08:29:47;100241.75;;;19.50;100.00
48846;BME280;34665;51.886;5.436;2023-04-24T08:32:12;100258.03;;;19.71;100.00
48846;BME280;34665;51.886;5.436;2023-04-24T08:34:37;100265.81;;;19.20;100.00
48846;BME280;34665;51.886;5.436;2023-04-24T08:37:03;100260.06;;;18.38;100.00
48846;BME280;34665;51.886;5.436;2023-04-24T08:39:28;100271.00;;;19.22;100.00
48846;BME280;34665;51.886;5.436;2023-04-24T08:41:54;100269.47;;;18.83;100.00
48846;BME280;34665;51.886;5.436;2023-04-24T08:44:20;100283.03;;;19.94;100.00
48846;BME280;34665;51.886;5.436;2023-04-24T08:46:46;100291.13;;;20.19;100.00
48846;BME280;34665;51.886;5.436;2023-04-24T08:49:13;100285.03;;;19.03;100.00
48846;BME280;34665;51.886;5.436;2023-04-24T08:51:41;100289.78;;;18.81;100.00
48846;BME280;34665;51.886;5.436;2023-04-24T08:54:06;100309.00;;;18.31;100.00
48846;BME280;34665;51.886;5.436;2023-04-24T08:56:33;100305.47;;;17.98;100.00
48846;BME280;34665;51.886;5.436;2023-04-24T08:58:58;100317.28;;;17.86;100.00
48846;BME280;34665;51.886;5.436;2023-04-24T09:01:25;100318.47;;;18.71;100.00
48846;BME280;34665;51.886;5.436;2023-04-24T09:03:51;100324.72;;;18.34;100.00
48846;BME280;34665;51.886;5.436;2023-04-24T09:06:18;100326.22;;;18.19;100.00
48846;BME280;34665;51.886;5.436;2023-04-24T09:08:45;100326.84;;;17.99;100.00
48846;BME280;34665;51.886;5.436;2023-04-24T09:11:10;100337.97;;;17.70;100.00
48846;BME280;34665;51.886;5.436;2023-04-24T09:13:36;100333.22;;;17.55;100.00
48846;BME280;34665;51.886;5.436;2023-04-24T09:16:02;100340.88;;;17.14;100.00
48846;BME280;34665;51.886;5.436;2023-04-24T09:18:27;100339.63;;;16.82;100.00
48846;BME280;34665;51.886;5.436;2023-04-24T09:21:03;100350.53;;;17.10;100.00
48846;BME280;34665;51.886;5.436;2023-04-24T09:23:29;100357.09;;;17.41;100.00
48846;BME280;34665;51.886;5.436;2023-04-24T09:25:55;100373.16;;;17.75;100.00
48846;BME280;34665;51.886;5.436;2023-04-24T09:28:24;100369.53;;;17.65;100.00
48846;BME280;34665;51.886;5.436;2023-04-24T09:31:01;100382.25;;;17.91;100.00
48846;BME280;34665;51.886;5.436;2023-04-24T09:33:26;100374.31;;;18.88;100.00
48846;BME280;34665;51.886;5.436;2023-04-24T09:35:52;100380.63;;;18.56;100.00
48846;BME280;34665;51.886;5.436;2023-04-24T09:38:17;100379.94;;;18.33;100.00
48846;BME280;34665;51.886;5.436;2023-04-24T09:40:43;100383.06;;;18.19;100.00
48846;BME280;34665;51.886;5.436;2023-04-24T09:43:11;100389.81;;;18.98;100.00
48846;BME280;34665;51.886;5.436;2023-04-24T09:45:40;100383.06;;;18.95;100.00
48846;BME280;34665;51.886;5.436;2023-04-24T09:48:05;100397.94;;;18.92;100.00
48846;BME280;34665;51.886;5.436;2023-04-24T09:50:34;100401.78;;;18.59;100.00
48846;BME280;34665;51.886;5.436;2023-04-24T09:53:03;100402.88;;;18.63;99.78
48846;BME280;34665;51.886;5.436;2023-04-24T09:55:29;100416.50;;;19.11;98.35
48846;BME280;34665;51.886;5.436;2023-04-24T09:57:56;100411.72;;;18.91;94.30
48846;BME280;34665;51.886;5.436;2023-04-24T10:00:26;100414.31;;;18.70;94.41
48846;BME280;34665;51.886;5.436;2023-04-24T10:02:58;100432.59;;;18.20;96.74
48846;BME280;34665;51.886;5.436;2023-04-24T10:05:28;100428.69;;;18.38;96.44
48846;BME280;34665;51.886;5.436;2023-04-24T10:07:58;100432.44;;;19.08;97.67
48846;BME280;34665;51.886;5.436;2023-04-24T10:10:23;100439.25;;;18.72;95.08
48846;BME280;34665;51.886;5.436;2023-04-24T10:12:49;100440.97;;;18.89;94.66
48846;BME280;34665;51.886;5.436;2023-04-24T10:15:15;100447.84;;;19.02;94.66
48846;BME280;34665;51.886;5.436;2023-04-24T10:17:41;100436.84;;;18.11;94.05
48846;BME280;34665;51.886;5.436;2023-04-24T10:20:07;100442.22;;;19.14;91.92
48846;BME280;34665;51.886;5.436;2023-04-24T10:22:33;100441.72;;;19.17;93.56
48846;BME280;34665;51.886;5.436;2023-04-24T10:24:59;100445.81;;;18.82;90.99
48846;BME280;34665;51.886;5.436;2023-04-24T10:27:24;100455.56;;;18.83;93.37
48846;BME280;34665;51.886;5.436;2023-04-24T10:29:51;100466.22;;;18.57;95.35
48846;BME280;34665;51.886;5.436;2023-04-24T10:32:18;100466.22;;;18.57;97.79
48846;BME280;34665;51.886;5.436;2023-04-24T10:34:43;100460.47;;;18.20;95.79
48846;BME280;34665;51.886;5.436;2023-04-24T10:37:09;100470.19;;;17.94;95.72
48846;BME280;34665;51.886;5.436;2023-04-24T10:39:34;100468.63;;;17.54;98.78
48846;BME280;34665;51.886;5.436;2023-04-24T10:42:13;100465.84;;;18.81;91.97
48846;BME280;34665;51.886;5.436;2023-04-24T10:44:39;100468.03;;;18.84;93.74
48846;BME280;34665;51.886;5.436;2023-04-24T10:47:05;100471.78;;;18.77;93.63
48846;BME280;34665;51.886;5.436;2023-04-24T10:49:37;100490.31;;;19.29;87.46
48846;BME280;34665;51.886;5.436;2023-04-24T10:52:03;100479.94;;;19.74;88.81
48846;BME280;34665;51.886;5.436;2023-04-24T10:59:43;100489.03;;;19.47;87.30
48846;BME280;34665;51.886;5.436;2023-04-24T11:02:09;100505.47;;;18.27;90.76
48846;BME280;34665;51.886;5.436;2023-04-24T11:04:34;100492.06;;;17.48;92.91
48846;BME280;34665;51.886;5.436;2023-04-24T11:07:03;100504.69;;;17.59;96.19
48846;BME280;34665;51.886;5.436;2023-04-24T11:09:32;100507.75;;;17.68;98.34
48846;BME280;34665;51.886;5.436;2023-04-24T11:12:07;100503.19;;;18.18;98.81
48846;BME280;34665;51.886;5.436;2023-04-24T11:15:16;100522.72;;;18.48;97.18
48846;BME280;34665;51.886;5.436;2023-04-24T11:17:27;100518.88;;;18.16;97.17
48846;BME280;34665;51.886;5.436;2023-04-24T11:19:53;100530.91;;;18.86;93.93
48846;BME280;34665;51.886;5.436;2023-04-24T11:22:25;100514.50;;;17.09;98.31
48846;BME280;34665;51.886;5.436;2023-04-24T11:24:53;100526.44;;;18.69;92.29
48846;BME280;34665;51.886;5.436;2023-04-24T11:27:23;100515.31;;;18.38;92.86
48846;BME280;34665;51.886;5.436;2023-04-24T11:35:00;100515.41;;;19.14;87.79
48846;BME280;34665;51.886;5.436;2023-04-24T11:37:29;100519.78;;;19.15;85.86
48846;BME280;34665;51.886;5.436;2023-04-24T11:39:58;100529.47;;;20.07;85.40
48846;BME280;34665;51.886;5.436;2023-04-24T11:42:24;100552.59;;;19.18;84.49
48846;BME280;34665;51.886;5.436;2023-04-24T11:44:53;100544.75;;;20.49;81.45
48846;BME280;34665;51.886;5.436;2023-04-24T11:47:20;100534.16;;;21.41;73.91
48846;BME280;34665;51.886;5.436;2023-04-24T11:49:52;100550.75;;;20.62;73.37
48846;BME280;34665;51.886;5.436;2023-04-24T11:52:17;100550.22;;;20.55;75.89
48846;BME280;34665;51.886;5.436;2023-04-24T11:54:50;100551.97;;;20.02;77.66
48846;BME280;34665;51.886;5.436;2023-04-24T11:57:15;100552.13;;;18.94;81.07
48846;BME280;34665;51.886;5.436;2023-04-24T11:59:41;100564.59;;;18.13;83.03
48846;BME280;34665;51.886;5.436;2023-04-24T12:02:07;100566.13;;;18.31;82.88
48846;BME280;34665;51.886;5.436;2023-04-24T12:04:39;100585.63;;;17.88;87.32
48846;BME280;34665;51.886;5.436;2023-04-24T12:07:06;100584.34;;;17.34;91.34
48846;BME280;34665;51.886;5.436;2023-04-24T12:09:43;100584.41;;;17.40;93.49
48846;BME280;34665;51.886;5.436;2023-04-24T12:12:09;100601.53;;;17.85;93.39
48846;BME280;34665;51.886;5.436;2023-04-24T12:14:42;100584.84;;;17.31;96.34
48846;BME280;34665;51.886;5.436;2023-04-24T12:17:08;100590.13;;;18.99;93.41
48846;BME280;34665;51.886;5.436;2023-04-24T12:19:33;100580.19;;;19.53;91.24
48846;BME280;34665;51.886;5.436;2023-04-24T12:22:03;100595.19;;;20.19;85.60
48846;BME280;34665;51.886;5.436;2023-04-24T12:24:29;100601.59;;;21.39;80.69
48846;BME280;34665;51.886;5.436;2023-04-24T12:26:56;100600.78;;;20.87;79.48
48846;BME280;34665;51.886;5.436;2023-04-24T12:29:22;100618.75;;;21.03;77.08
48846;BME280;34665;51.886;5.436;2023-04-24T12:31:49;100603.38;;;20.30;78.05
48846;BME280;34665;51.886;5.436;2023-04-24T12:34:19;100622.41;;;20.35;81.26
48846;BME280;34665;51.886;5.436;2023-04-24T12:36:45;100626.59;;;18.64;89.57
48846;BME280;34665;51.886;5.436;2023-04-24T12:39:19;100625.53;;;19.20;89.86
48846;BME280;34665;51.886;5.436;2023-04-24T12:42:03;100623.03;;;19.13;88.43
48846;BME280;34665;51.886;5.436;2023-04-24T12:44:32;100623.78;;;19.09;86.78
48846;BME280;34665;51.886;5.436;2023-04-24T12:47:00;100620.34;;;19.18;86.30
48846;BME280;34665;51.886;5.436;2023-04-24T12:49:25;100623.13;;;18.96;86.50
48846;BME280;34665;51.886;5.436;2023-04-24T12:51:51;100631.09;;;19.41;84.82
48846;BME280;34665;51.886;5.436;2023-04-24T12:54:17;100630.06;;;20.54;82.58
48846;BME280;34665;51.886;5.436;2023-04-24T12:56:43;100634.22;;;21.81;76.35